Mount Sherman, Arkansas
Current Conditions -  °F | °C
As of 9:53 PM on Sunday 25 Jan 2015 (Local Time) from KHRO Reporting Station
Overcast Overcast  
Wind Chill: 29°   Ceiling: 1700
Heat Index: 38°   Visibility: 10mi
Dew Point: 32°   Wind: 16mph
Humidity: 79%   Direction: 320°NW
Pressure: 30.03"   Gusts: 26mph
Location:  36.0047°N, 93.218°W
Report Text: KHRO 260353Z AUTO 32014G23KT 10SM OVC017 03/00 A3003 RMK AO2 PK WND 34026/0319 SLP171 T00330000
Loading
Personal Weather Stations






























Interactive Weather Map New forecast layout! Learn more

10-Day Weather Forecast

Advertisements
Track Severe Weather on mobile